Time;durP1;ratioP1;P1;durP2;ratioP2;P2;SDS_P1;SDS_P2;PMS_P1;PMS_P2;Temp;Humidity;BMP_temperature;BMP_pressure;BME280_temperature;BME280_humidity;BME280_pressure;Samples;Min_cycle;Max_cycle;Signal;HPM_P1;HPM_P2
2022/09/18 00:01:13;;;;;;;2.30;1.30;;;7.50;99.90;;;;;;5075377;28;20033;-82
2022/09/18 00:03:40;;;;;;;5.18;1.38;;;7.40;99.90;;;;;;5075177;28;20040;-80
2022/09/18 00:06:11;;;;;;;5.32;1.45;;;7.40;99.90;;;;;;5074762;28;20047;-82
2022/09/18 00:08:37;;;;;;;2.50;1.23;;;7.40;99.90;;;;;;5092631;28;20066;-81
2022/09/18 00:11:05;;;;;;;4.53;1.70;;;7.30;99.90;;;;;;5039159;28;20498;-81
2022/09/18 00:13:32;;;;;;;3.53;1.30;;;7.30;99.90;;;;;;5066798;28;20020;-80
2022/09/18 00:15:58;;;;;;;4.10;1.13;;;7.30;99.90;;;;;;5059129;28;20032;-81
2022/09/18 00:18:24;;;;;;;4.85;1.35;;;7.30;99.90;;;;;;5056184;28;20063;-80
2022/09/18 00:20:50;;;;;;;3.97;1.23;;;7.30;99.90;;;;;;5072634;28;20036;-80
2022/09/18 00:23:15;;;;;;;6.35;1.40;;;7.30;99.90;;;;;;5038395;28;20035;-79
2022/09/18 00:25:41;;;;;;;2.90;1.00;;;7.30;99.90;;;;;;5071944;28;20032;-81
2022/09/18 00:28:07;;;;;;;6.95;1.50;;;7.30;99.90;;;;;;5039198;28;20574;-81
2022/09/18 00:30:32;;;;;;;6.95;1.35;;;7.30;99.90;;;;;;5072329;28;20032;-81
2022/09/18 00:32:58;;;;;;;6.63;1.70;;;7.30;99.90;;;;;;5071706;28;20061;-80
2022/09/18 00:35:24;;;;;;;2.80;1.42;;;7.30;99.90;;;;;;5071860;28;20500;-81
2022/09/18 00:37:50;;;;;;;3.47;1.02;;;7.30;99.90;;;;;;5088775;28;20119;-81
2022/09/18 00:40:16;;;;;;;7.38;1.60;;;7.30;99.90;;;;;;5053348;28;20043;-81
2022/09/18 00:42:42;;;;;;;5.65;1.50;;;7.40;99.90;;;;;;5054862;28;20554;-81
2022/09/18 00:45:11;;;;;;;3.05;1.30;;;7.40;99.90;;;;;;5085134;28;20039;-80
2022/09/18 00:47:47;;;;;;;5.72;2.55;;;7.40;99.90;;;;;;5069601;28;20119;-81
2022/09/18 00:50:18;;;;;;;4.30;1.40;;;7.40;99.90;;;;;;5083540;28;20401;-80
2022/09/18 00:52:50;;;;;;;9.02;2.03;;;7.40;99.90;;;;;;5073074;28;20035;-81
2022/09/18 00:55:22;;;;;;;4.55;1.58;;;7.40;99.90;;;;;;5071040;28;20035;-82
2022/09/18 00:57:53;;;;;;;10.27;1.30;;;7.40;99.90;;;;;;5086002;28;20036;-80
2022/09/18 01:00:19;;;;;;;6.28;1.42;;;7.40;99.90;;;;;;5086070;28;20031;-81
2022/09/18 01:02:47;;;;;;;4.32;1.27;;;7.40;99.90;;;;;;5066090;28;20066;-82
2022/09/18 01:05:42;;;;;;;5.32;1.38;;;7.30;99.90;;;;;;5081269;28;20389;-81
2022/09/18 01:08:22;;;;;;;5.93;1.60;;;7.30;99.90;;;;;;5065575;28;20468;-81
2022/09/18 01:11:02;;;;;;;1.85;1.33;;;7.30;99.90;;;;;;5090402;28;20048;-81
2022/09/18 01:13:42;;;;;;;7.22;1.40;;;7.30;99.90;;;;;;5052713;28;20032;-82
2022/09/18 01:16:35;;;;;;;5.20;2.20;;;7.30;99.90;;;;;;5061135;28;20032;-81
2022/09/18 01:19:35;;;;;;;7.72;2.80;;;7.30;99.90;;;;;;5088769;28;20082;-81
2022/09/18 01:22:42;;;;;;;6.82;2.03;;;7.20;99.90;;;;;;5087042;28;20020;-82
2022/09/18 01:25:40;;;;;;;10.43;1.52;;;7.20;99.90;;;;;;5078029;28;20044;-81
2022/09/18 01:28:19;;;;;;;2.05;1.45;;;7.20;99.90;;;;;;5051935;28;20032;-81
2022/09/18 01:30:47;;;;;;;5.50;2.03;;;7.20;99.90;;;;;;5069789;28;20085;-82
2022/09/18 01:33:26;;;;;;;6.30;1.88;;;7.20;99.90;;;;;;5073179;28;20704;-83
2022/09/18 01:35:55;;;;;;;5.25;1.75;;;7.20;99.90;;;;;;5073603;28;20036;-81
2022/09/18 01:39:01;;;;;;;5.30;1.98;;;7.20;99.90;;;;;;5038278;28;20043;-82
2022/09/18 01:41:28;;;;;;;6.20;2.05;;;7.20;99.90;;;;;;5080812;28;20036;-81
2022/09/18 01:44:04;;;;;;;5.65;1.92;;;7.20;99.90;;;;;;5068980;28;20691;-82
2022/09/18 01:46:31;;;;;;;3.22;1.75;;;7.20;99.90;;;;;;5064162;28;20111;-81
2022/09/18 01:49:02;;;;;;;6.63;2.13;;;7.20;99.90;;;;;;5056489;28;20043;-82
2022/09/18 01:51:42;;;;;;;5.93;2.03;;;7.20;99.90;;;;;;5073060;28;20020;-82
2022/09/18 01:54:14;;;;;;;8.05;2.38;;;7.20;99.90;;;;;;5072389;28;20028;-81
2022/09/18 01:57:07;;;;;;;5.80;2.58;;;7.30;99.90;;;;;;5089874;28;20059;-82
2022/09/18 01:59:48;;;;;;;11.90;2.67;;;7.30;99.90;;;;;;5073280;28;20474;-81
2022/09/18 02:02:23;;;;;;;7.25;2.28;;;7.30;99.90;;;;;;5070095;28;20046;-80
2022/09/18 02:04:54;;;;;;;3.63;2.15;;;7.40;99.90;;;;;;5064728;28;20074;-82
2022/09/18 02:07:29;;;;;;;5.05;2.20;;;7.40;99.90;;;;;;5086951;28;20059;-81
2022/09/18 02:09:56;;;;;;;12.60;2.38;;;7.40;99.90;;;;;;5088722;28;20020;-81
2022/09/18 02:12:25;;;;;;;3.50;1.70;;;7.40;99.90;;;;;;5056388;28;20046;-81
2022/09/18 02:14:59;;;;;;;6.35;2.25;;;7.50;99.90;;;;;;5069419;28;20031;-80
2022/09/18 02:17:50;;;;;;;4.82;1.98;;;7.50;99.90;;;;;;5075314;28;20261;-83
2022/09/18 02:20:24;;;;;;;4.00;2.17;;;7.50;99.90;;;;;;5076256;28;20112;-81
2022/09/18 02:22:53;;;;;;;7.75;2.85;;;7.50;99.90;;;;;;5059210;28;20028;-81
2022/09/18 02:25:28;;;;;;;4.32;2.42;;;7.60;99.90;;;;;;5093143;28;20475;-81
2022/09/18 02:27:54;;;;;;;6.63;2.30;;;7.50;99.90;;;;;;5093109;28;20741;-81
2022/09/18 02:30:21;;;;;;;4.90;2.40;;;7.60;99.90;;;;;;5074601;28;20506;-81
2022/09/18 02:32:46;;;;;;;10.77;2.85;;;7.60;99.90;;;;;;5094089;28;20020;-81
2022/09/18 02:35:13;;;;;;;4.78;2.03;;;7.60;99.90;;;;;;5067805;28;20062;-81
2022/09/18 02:37:54;;;;;;;4.10;2.22;;;7.60;99.90;;;;;;5060510;28;20068;-82
2022/09/18 02:40:25;;;;;;;6.03;2.80;;;7.60;99.90;;;;;;5071255;28;20039;-83
2022/09/18 02:43:16;;;;;;;6.78;2.50;;;7.70;99.90;;;;;;5093350;28;20484;-81
2022/09/18 02:46:06;;;;;;;9.55;2.80;;;7.60;99.90;;;;;;5077566;28;20415;-82
2022/09/18 02:48:48;;;;;;;7.38;2.50;;;7.60;99.90;;;;;;5073639;28;20033;-81
2022/09/18 02:51:27;;;;;;;7.43;3.20;;;7.60;99.90;;;;;;5087642;28;20055;-81
2022/09/18 02:54:05;;;;;;;8.13;2.85;;;7.60;99.90;;;;;;5067492;28;20043;-81
2022/09/18 02:56:49;;;;;;;4.95;2.83;;;7.60;99.90;;;;;;5072988;28;20028;-81
2022/09/18 02:59:32;;;;;;;6.88;2.42;;;7.60;99.90;;;;;;5076418;28;20031;-82
2022/09/18 03:01:58;;;;;;;8.10;2.90;;;7.60;99.90;;;;;;5074572;28;20161;-81
2022/09/18 03:04:26;;;;;;;5.43;2.80;;;7.70;99.90;;;;;;5051230;28;20558;-80
2022/09/18 03:07:01;;;;;;;5.75;2.40;;;7.60;99.90;;;;;;5079959;28;20102;-81
2022/09/18 03:09:28;;;;;;;5.18;3.17;;;7.60;99.90;;;;;;5095059;28;20050;-81
2022/09/18 03:11:55;;;;;;;3.92;2.13;;;7.60;99.90;;;;;;5062567;28;20507;-82
2022/09/18 03:14:21;;;;;;;3.88;1.92;;;7.60;99.90;;;;;;5081590;28;20036;-82
2022/09/18 03:16:46;;;;;;;9.05;2.50;;;7.50;99.90;;;;;;5080095;28;20542;-83
2022/09/18 03:19:13;;;;;;;5.35;2.17;;;7.50;99.90;;;;;;5045759;28;20096;-83
2022/09/18 03:21:41;;;;;;;3.08;1.95;;;7.50;99.90;;;;;;5094550;28;20654;-83
2022/09/18 03:24:09;;;;;;;4.22;2.00;;;7.40;99.90;;;;;;5062924;28;20074;-82
2022/09/18 03:26:37;;;;;;;4.70;2.30;;;7.50;99.90;;;;;;5079992;28;20422;-80
2022/09/18 03:29:08;;;;;;;5.45;2.25;;;7.50;99.90;;;;;;5044259;28;20056;-80
2022/09/18 03:31:33;;;;;;;8.85;1.85;;;7.40;99.90;;;;;;5069990;28;20029;-80
2022/09/18 03:34:00;;;;;;;9.20;2.65;;;7.40;99.90;;;;;;5067055;28;20039;-79
2022/09/18 03:36:26;;;;;;;4.20;2.30;;;7.40;99.90;;;;;;5076172;28;20077;-82
2022/09/18 03:38:53;;;;;;;3.65;2.10;;;7.50;99.90;;;;;;5042533;28;20100;-81
2022/09/18 03:41:18;;;;;;;4.03;2.47;;;7.50;99.90;;;;;;5052017;28;20082;-81
2022/09/18 03:43:44;;;;;;;7.00;2.60;;;7.50;99.90;;;;;;5044798;28;20096;-81
2022/09/18 03:46:11;;;;;;;5.78;2.50;;;7.50;99.90;;;;;;5074808;28;20115;-82
2022/09/18 03:48:37;;;;;;;6.45;2.92;;;7.50;99.90;;;;;;5057980;28;20086;-81
2022/09/18 03:51:03;;;;;;;5.07;2.90;;;7.50;99.90;;;;;;5077505;28;20381;-81
2022/09/18 03:53:30;;;;;;;4.35;2.38;;;7.50;99.90;;;;;;5036756;28;20399;-82
2022/09/18 03:56:19;;;;;;;10.75;2.92;;;7.50;99.90;;;;;;5044504;28;20042;-83
2022/09/18 03:59:04;;;;;;;8.30;2.20;;;7.50;99.90;;;;;;5066957;28;20047;-82
2022/09/18 04:01:50;;;;;;;2.10;1.85;;;7.40;99.90;;;;;;5073801;28;20550;-83
2022/09/18 04:04:24;;;;;;;6.78;2.47;;;7.40;99.90;;;;;;5093641;28;20037;-82
2022/09/18 04:07:09;;;;;;;3.13;2.40;;;7.40;99.90;;;;;;5091214;28;20043;-82
2022/09/18 04:09:44;;;;;;;3.78;2.53;;;7.40;99.90;;;;;;5058076;28;20679;-80
2022/09/18 04:12:10;;;;;;;4.75;2.38;;;7.40;99.90;;;;;;5072355;28;20585;-81
2022/09/18 04:14:36;;;;;;;3.95;2.75;;;7.40;99.90;;;;;;5085830;28;20147;-82
2022/09/18 04:17:02;;;;;;;4.68;2.67;;;7.50;99.90;;;;;;5058136;28;20496;-82
2022/09/18 04:19:29;;;;;;;5.90;2.70;;;7.50;99.90;;;;;;5068487;28;20038;-83
2022/09/18 04:21:56;;;;;;;14.23;3.00;;;7.50;99.90;;;;;;5039433;28;20074;-83
2022/09/18 04:24:21;;;;;;;4.82;2.60;;;7.60;99.90;;;;;;5082635;28;20036;-81
2022/09/18 04:26:48;;;;;;;6.47;2.50;;;7.50;99.90;;;;;;5052499;28;20056;-80
2022/09/18 04:29:14;;;;;;;5.53;3.00;;;7.60;99.90;;;;;;5060015;28;20063;-82
2022/09/18 04:31:40;;;;;;;4.40;2.58;;;7.60;99.90;;;;;;5042017;28;20504;-81
2022/09/18 04:34:10;;;;;;;5.45;2.58;;;7.60;99.90;;;;;;5057023;28;20066;-82
2022/09/18 04:36:36;;;;;;;5.15;2.65;;;7.60;99.90;;;;;;5073660;28;20397;-81
2022/09/18 04:39:02;;;;;;;3.30;2.20;;;7.60;99.90;;;;;;5080589;28;20028;-80
2022/09/18 04:41:28;;;;;;;5.20;2.75;;;7.60;99.90;;;;;;5063855;28;20555;-81
2022/09/18 04:43:55;;;;;;;3.65;2.35;;;7.60;99.90;;;;;;5062280;28;20035;-81
2022/09/18 04:46:21;;;;;;;3.90;2.50;;;7.60;99.90;;;;;;5068312;28;20032;-83
2022/09/18 04:48:50;;;;;;;6.30;2.50;;;7.60;99.90;;;;;;5039399;28;20035;-81
2022/09/18 04:51:19;;;;;;;6.30;2.28;;;7.60;99.90;;;;;;5074378;28;20038;-82
2022/09/18 04:53:47;;;;;;;5.00;2.55;;;7.60;99.90;;;;;;5066398;28;20039;-80
2022/09/18 04:56:13;;;;;;;4.78;2.00;;;7.60;99.90;;;;;;5052777;28;20120;-82
2022/09/18 04:58:41;;;;;;;5.13;2.28;;;7.60;99.90;;;;;;5074355;28;20508;-81
2022/09/18 05:01:08;;;;;;;4.18;2.30;;;7.60;99.90;;;;;;5057649;28;20620;-81
2022/09/18 05:03:34;;;;;;;2.40;2.13;;;7.60;99.90;;;;;;5022593;28;20059;-82
2022/09/18 05:06:00;;;;;;;6.18;2.90;;;7.60;99.90;;;;;;5063019;28;20024;-82
2022/09/18 05:08:27;;;;;;;3.58;2.60;;;7.60;99.90;;;;;;5070910;28;20036;-82
2022/09/18 05:10:53;;;;;;;4.78;2.60;;;7.70;99.90;;;;;;5073873;28;20053;-82
2022/09/18 05:13:19;;;;;;;7.22;2.78;;;7.70;99.90;;;;;;5057102;28;20119;-80
2022/09/18 05:15:57;;;;;;;4.80;2.55;;;7.70;99.90;;;;;;5059491;28;20601;-82
2022/09/18 05:18:26;;;;;;;6.75;3.10;;;7.70;99.90;;;;;;5037729;28;20067;-82
2022/09/18 05:20:54;;;;;;;8.60;3.00;;;7.80;99.90;;;;;;5041450;28;20028;-81
2022/09/18 05:23:20;;;;;;;4.45;2.65;;;7.80;99.90;;;;;;5055754;28;20123;-81
2022/09/18 05:25:46;;;;;;;6.35;3.47;;;7.80;99.90;;;;;;5035693;28;20024;-82
2022/09/18 05:28:17;;;;;;;9.75;2.92;;;7.80;99.90;;;;;;5057918;28;20062;-81
2022/09/18 05:30:45;;;;;;;11.88;3.08;;;7.80;99.90;;;;;;5034043;28;20031;-80
2022/09/18 05:33:11;;;;;;;4.28;2.90;;;7.90;99.90;;;;;;5055773;28;20032;-81
2022/09/18 05:35:39;;;;;;;6.05;2.63;;;8.00;99.90;;;;;;5065036;28;20036;-82
2022/09/18 05:38:05;;;;;;;3.60;2.40;;;8.00;99.90;;;;;;5053435;28;20043;-81
2022/09/18 05:40:33;;;;;;;2.67;1.95;;;8.00;99.90;;;;;;5072769;28;20036;-81
2022/09/18 05:43:01;;;;;;;7.22;2.40;;;8.00;99.90;;;;;;5072381;28;20500;-80
2022/09/18 05:45:29;;;;;;;6.07;2.22;;;8.00;99.90;;;;;;5088764;28;20024;-82
2022/09/18 05:48:00;;;;;;;2.58;2.33;;;8.00;99.90;;;;;;5056211;28;20035;-82
2022/09/18 05:50:29;;;;;;;4.28;2.75;;;8.00;99.90;;;;;;5055715;28;20666;-81
2022/09/18 05:53:03;;;;;;;3.78;2.63;;;8.00;99.90;;;;;;5072621;28;20028;-82
2022/09/18 05:55:38;;;;;;;8.52;2.58;;;8.10;99.90;;;;;;5073376;28;20020;-82
2022/09/18 05:58:05;;;;;;;5.70;3.08;;;8.10;99.90;;;;;;5069965;28;20107;-80
2022/09/18 06:00:33;;;;;;;8.57;2.80;;;8.20;99.90;;;;;;5055330;28;20032;-82
2022/09/18 06:03:09;;;;;;;3.65;3.08;;;8.40;99.90;;;;;;5053852;28;20261;-81
2022/09/18 06:05:36;;;;;;;4.20;2.72;;;8.50;99.90;;;;;;5084244;28;20535;-81
2022/09/18 06:08:08;;;;;;;3.00;2.63;;;8.50;99.90;;;;;;5073564;28;20617;-82
2022/09/18 06:10:36;;;;;;;6.07;3.67;;;8.50;99.90;;;;;;5073125;28;20036;-83
2022/09/18 06:13:07;;;;;;;6.50;2.58;;;8.60;99.90;;;;;;5072198;28;20071;-82
2022/09/18 06:15:46;;;;;;;3.60;2.50;;;8.60;99.90;;;;;;5071887;28;20579;-82
2022/09/18 06:18:13;;;;;;;10.38;3.10;;;8.60;99.90;;;;;;5072098;28;20032;-80
2022/09/18 06:20:41;;;;;;;5.65;2.65;;;8.60;99.90;;;;;;5071117;28;20044;-81
2022/09/18 06:23:07;;;;;;;4.30;2.55;;;8.60;99.90;;;;;;5038211;28;20625;-81
2022/09/18 06:26:01;;;;;;;6.05;2.90;;;8.70;99.90;;;;;;5083503;28;20481;-82
2022/09/18 06:28:32;;;;;;;5.05;2.28;;;8.70;99.90;;;;;;5055375;28;20036;-81
2022/09/18 06:31:01;;;;;;;4.95;2.42;;;8.70;99.90;;;;;;5052463;28;20025;-80
2022/09/18 06:33:31;;;;;;;6.38;2.60;;;8.80;99.90;;;;;;5089784;28;20043;-82
2022/09/18 06:35:59;;;;;;;4.65;2.28;;;8.80;99.90;;;;;;5071797;28;20110;-82
2022/09/18 06:38:34;;;;;;;4.90;2.50;;;8.80;99.90;;;;;;5088568;28;20048;-82
2022/09/18 06:41:00;;;;;;;4.22;2.45;;;8.80;99.90;;;;;;5076553;28;20032;-82
2022/09/18 06:43:40;;;;;;;7.10;2.72;;;8.90;99.90;;;;;;5071204;28;20025;-82
2022/09/18 06:46:45;;;;;;;5.20;2.05;;;9.00;99.90;;;;;;5079661;28;20028;-82
2022/09/18 06:49:21;;;;;;;5.65;2.25;;;9.10;99.90;;;;;;5075057;28;20024;-82
2022/09/18 06:51:47;;;;;;;5.22;1.98;;;9.10;99.90;;;;;;5064476;28;20035;-82
2022/09/18 06:54:15;;;;;;;3.35;2.28;;;9.10;99.90;;;;;;5077473;28;20059;-82
2022/09/18 06:56:42;;;;;;;5.80;2.08;;;9.20;99.90;;;;;;5070746;28;20029;-81
2022/09/18 06:59:11;;;;;;;3.60;1.83;;;9.20;99.90;;;;;;5072818;28;20587;-82
2022/09/18 07:01:37;;;;;;;4.53;1.75;;;9.30;99.90;;;;;;5074483;28;20087;-81
2022/09/18 07:04:17;;;;;;;3.33;1.83;;;9.30;99.90;;;;;;5079878;28;20096;-83
2022/09/18 07:06:45;;;;;;;1.85;1.52;;;9.40;99.90;;;;;;5078394;28;20037;-81
2022/09/18 07:09:11;;;;;;;6.97;1.83;;;9.50;99.90;;;;;;5084601;28;20485;-81
2022/09/18 07:11:52;;;;;;;2.40;1.73;;;9.50;99.90;;;;;;5099440;28;20036;-82
2022/09/18 07:14:21;;;;;;;2.67;1.60;;;9.60;99.90;;;;;;5047420;28;20028;-83
2022/09/18 07:16:50;;;;;;;2.95;1.70;;;9.70;99.90;;;;;;5079847;28;20021;-82
2022/09/18 07:19:17;;;;;;;5.50;1.60;;;9.80;99.90;;;;;;5090939;28;20578;-81
2022/09/18 07:21:42;;;;;;;6.00;1.48;;;9.80;99.90;;;;;;5079966;28;20051;-83
2022/09/18 07:24:08;;;;;;;3.75;1.63;;;9.90;99.90;;;;;;5069901;28;20061;-82
2022/09/18 07:26:34;;;;;;;1.98;1.48;;;10.00;99.90;;;;;;5044289;28;20033;-83
2022/09/18 07:29:01;;;;;;;2.00;1.23;;;10.00;99.90;;;;;;5093963;28;20496;-82
2022/09/18 07:31:34;;;;;;;2.88;1.17;;;10.10;99.90;;;;;;5082602;28;20039;-82
2022/09/18 07:34:03;;;;;;;8.13;3.33;;;10.10;99.90;;;;;;5084597;28;20047;-81
2022/09/18 07:36:29;;;;;;;2.50;1.20;;;10.20;99.90;;;;;;5054779;28;20043;-81
2022/09/18 07:38:56;;;;;;;2.65;0.98;;;10.10;99.90;;;;;;5056883;28;20578;-81
2022/09/18 07:41:25;;;;;;;2.90;1.23;;;10.20;99.90;;;;;;5070694;28;20520;-81
2022/09/18 07:43:51;;;;;;;1.40;1.08;;;10.20;99.90;;;;;;5054466;28;20032;-81
2022/09/18 07:46:17;;;;;;;5.68;2.75;;;10.20;99.90;;;;;;5075583;28;20032;-82
2022/09/18 07:48:46;;;;;;;3.88;1.48;;;10.10;99.90;;;;;;5088963;28;20081;-82
2022/09/18 07:51:20;;;;;;;2.95;1.27;;;10.10;99.90;;;;;;5077397;28;20024;-81
2022/09/18 07:53:48;;;;;;;1.17;0.98;;;10.00;99.90;;;;;;5031830;28;20043;-81
2022/09/18 07:56:19;;;;;;;1.90;1.00;;;10.00;99.90;;;;;;5059351;28;20031;-81
2022/09/18 07:58:45;;;;;;;2.42;1.20;;;9.90;99.90;;;;;;5060164;28;20177;-81
2022/09/18 08:01:18;;;;;;;1.98;1.20;;;9.80;99.90;;;;;;5067032;28;20032;-82
2022/09/18 08:03:48;;;;;;;2.28;1.17;;;9.80;99.90;;;;;;5044158;28;21336;-81
2022/09/18 08:06:14;;;;;;;1.50;1.05;;;9.70;99.90;;;;;;5071114;28;20086;-82
2022/09/18 08:09:03;;;;;;;2.42;1.67;;;9.70;99.90;;;;;;5058518;28;20020;-81
2022/09/18 08:11:55;;;;;;;4.88;3.63;;;9.70;99.90;;;;;;5084101;28;20119;-81
2022/09/18 08:14:49;;;;;;;1.95;0.90;;;9.70;99.90;;;;;;5061108;28;20061;-81
2022/09/18 08:17:32;;;;;;;2.58;1.05;;;9.80;99.90;;;;;;5048865;28;20954;-81
2022/09/18 08:20:09;;;;;;;1.35;1.20;;;9.80;99.90;;;;;;5049158;28;20033;-81
2022/09/18 08:22:42;;;;;;;2.17;1.10;;;9.80;99.90;;;;;;5055747;28;20033;-81
2022/09/18 08:25:09;;;;;;;1.23;1.10;;;9.80;99.90;;;;;;5067374;28;20035;-81
2022/09/18 08:27:39;;;;;;;4.53;1.10;;;9.80;99.90;;;;;;5063443;28;20055;-81
2022/09/18 08:30:07;;;;;;;2.55;1.13;;;9.80;99.90;;;;;;5093181;28;20088;-81
2022/09/18 08:32:33;;;;;;;1.02;1.00;;;9.80;99.90;;;;;;5074425;28;20038;-81
2022/09/18 08:35:00;;;;;;;2.08;1.20;;;9.80;99.90;;;;;;5090614;28;20618;-80
2022/09/18 08:37:28;;;;;;;2.42;1.48;;;9.80;99.90;;;;;;5082732;28;20443;-80
2022/09/18 08:40:55;;;;;;;4.85;1.40;;;9.70;99.90;;;;;;5072371;28;20044;-81
2022/09/18 08:43:42;;;;;;;0.77;0.77;;;9.70;99.90;;;;;;5084148;28;20027;-81
2022/09/18 08:46:14;;;;;;;1.98;1.00;;;9.60;99.90;;;;;;5078567;28;20058;-80
2022/09/18 08:48:52;;;;;;;0.82;0.82;;;9.60;99.90;;;;;;5066413;28;20648;-82
2022/09/18 08:51:21;;;;;;;1.27;0.90;;;9.60;99.90;;;;;;5086563;28;20015;-80
2022/09/18 08:53:53;;;;;;;1.20;1.10;;;9.50;99.90;;;;;;5087074;28;20271;-80
2022/09/18 08:56:44;;;;;;;1.42;0.98;;;9.60;99.90;;;;;;5106246;28;20123;-80
2022/09/18 08:59:33;;;;;;;1.13;1.10;;;9.60;99.90;;;;;;5056409;28;20037;-80
2022/09/18 09:02:36;;;;;;;2.20;1.17;;;9.60;99.90;;;;;;5070948;28;20220;-80
2022/09/18 09:05:13;;;;;;;2.70;0.90;;;9.60;99.90;;;;;;5093515;28;20023;-79
2022/09/18 09:08:04;;;;;;;1.20;1.10;;;9.50;99.90;;;;;;5057208;28;20028;-80
2022/09/18 09:11:00;;;;;;;1.67;1.00;;;9.50;99.90;;;;;;5082980;28;20522;-81
2022/09/18 09:13:44;;;;;;;1.17;1.08;;;9.60;99.90;;;;;;5073563;28;20655;-81
2022/09/18 09:16:15;;;;;;;1.88;1.17;;;9.50;99.90;;;;;;5074438;28;20035;-82
2022/09/18 09:18:58;;;;;;;2.08;1.10;;;9.50;99.90;;;;;;5091560;28;20067;-80
2022/09/18 09:21:38;;;;;;;2.90;1.00;;;9.50;99.90;;;;;;5091636;28;20089;-80
2022/09/18 09:24:20;;;;;;;2.28;1.27;;;9.60;99.90;;;;;;5056596;28;20032;-80
2022/09/18 09:27:39;;;;;;;2.20;1.00;;;9.60;99.90;;;;;;5079218;28;20032;-81
2022/09/18 09:30:21;;;;;;;1.70;1.27;;;9.70;99.90;;;;;;5088203;28;20031;-80
2022/09/18 09:33:30;;;;;;;1.10;0.95;;;9.70;99.90;;;;;;5060934;28;20044;-81
2022/09/18 09:36:22;;;;;;;1.67;1.38;;;9.90;99.90;;;;;;5085989;28;20028;-80
2022/09/18 09:39:16;;;;;;;2.08;1.10;;;9.90;99.90;;;;;;5078648;28;20028;-81
2022/09/18 09:41:57;;;;;;;2.15;0.90;;;9.90;99.90;;;;;;5086605;28;20036;-80
2022/09/18 09:44:30;;;;;;;0.98;0.98;;;10.00;99.90;;;;;;5068884;28;20028;-82
2022/09/18 09:47:09;;;;;;;1.35;1.23;;;10.00;99.90;;;;;;5071488;28;20024;-82
2022/09/18 09:49:52;;;;;;;1.60;1.08;;;10.00;99.90;;;;;;5067651;28;20025;-81
2022/09/18 09:52:27;;;;;;;0.70;0.70;;;10.10;99.90;;;;;;5070286;28;20024;-82
2022/09/18 09:55:13;;;;;;;1.33;0.70;;;10.10;99.90;;;;;;5066908;28;20578;-82
2022/09/18 09:57:55;;;;;;;3.70;0.85;;;10.20;99.90;;;;;;5055094;28;20028;-82
2022/09/18 10:00:22;;;;;;;0.90;0.77;;;10.10;99.90;;;;;;5093720;28;20024;-83
2022/09/18 10:03:13;;;;;;;1.67;0.47;;;10.10;99.90;;;;;;5064769;28;20050;-84
2022/09/18 10:06:09;;;;;;;0.60;0.60;;;10.10;99.90;;;;;;5074012;28;20024;-82
2022/09/18 10:09:02;;;;;;;2.33;0.52;;;10.00;99.90;;;;;;5073454;28;20036;-84
2022/09/18 10:11:29;;;;;;;1.10;0.70;;;10.00;99.90;;;;;;5066141;28;20032;-81
2022/09/18 10:14:09;;;;;;;1.58;0.50;;;9.90;99.90;;;;;;5030446;28;20062;-81
2022/09/18 10:16:39;;;;;;;0.82;0.70;;;10.00;99.90;;;;;;5064305;28;20024;-82
2022/09/18 10:19:13;;;;;;;3.03;0.80;;;10.00;99.90;;;;;;5073381;28;20492;-82
2022/09/18 10:21:41;;;;;;;0.70;0.70;;;10.00;99.90;;;;;;5073802;28;20073;-83
2022/09/18 10:24:29;;;;;;;1.25;1.00;;;10.00;99.90;;;;;;5086769;28;20558;-82
2022/09/18 10:27:06;;;;;;;1.63;0.80;;;10.10;99.90;;;;;;5073827;28;20052;-82
2022/09/18 10:29:32;;;;;;;0.80;0.80;;;10.10;99.90;;;;;;5074054;28;20031;-83
2022/09/18 10:32:00;;;;;;;1.52;1.10;;;10.10;99.90;;;;;;5059217;28;20017;-81
2022/09/18 10:34:47;;;;;;;3.33;1.10;;;10.20;99.90;;;;;;5055209;28;20559;-83
2022/09/18 10:37:27;;;;;;;1.00;0.90;;;10.20;99.90;;;;;;5070645;28;20031;-82
2022/09/18 10:40:01;;;;;;;1.20;1.10;;;10.30;99.90;;;;;;5066618;28;20027;-83
2022/09/18 10:42:35;;;;;;;4.88;1.23;;;10.30;99.90;;;;;;5094450;28;20024;-83
2022/09/18 10:45:25;;;;;;;1.42;1.25;;;10.40;99.90;;;;;;5084407;28;20152;-82
2022/09/18 10:48:21;;;;;;;1.75;1.15;;;10.50;99.90;;;;;;5059569;28;20028;-83
2022/09/18 10:51:03;;;;;;;2.42;1.35;;;10.50;99.90;;;;;;5071476;28;20456;-83
2022/09/18 10:53:41;;;;;;;3.80;1.50;;;10.60;99.90;;;;;;5074855;28;20040;-83
2022/09/18 10:56:31;;;;;;;1.35;1.25;;;10.60;99.90;;;;;;5077286;28;20040;-80
2022/09/18 10:59:30;;;;;;;1.35;1.25;;;10.60;99.90;;;;;;5077300;28;20024;-83
2022/09/18 11:01:59;;;;;;;1.10;1.10;;;10.50;99.90;;;;;;5070711;28;20392;-83
2022/09/18 11:04:26;;;;;;;1.20;1.05;;;10.60;99.90;;;;;;5039312;28;20117;-81
2022/09/18 11:06:53;;;;;;;1.38;0.82;;;10.60;99.90;;;;;;5067070;28;20063;-82
2022/09/18 11:09:37;;;;;;;1.70;1.00;;;10.50;99.90;;;;;;5041408;28;20025;-82
2022/09/18 11:12:10;;;;;;;1.00;0.80;;;10.50;99.90;;;;;;5082992;28;20077;-83
2022/09/18 11:14:42;;;;;;;1.75;1.00;;;10.50;99.90;;;;;;5083420;28;20569;-82
2022/09/18 11:17:27;;;;;;;1.88;1.00;;;10.50;99.90;;;;;;5081267;28;20031;-83
2022/09/18 11:19:56;;;;;;;1.10;0.80;;;10.40;99.90;;;;;;5042185;28;20029;-82
2022/09/18 11:22:41;;;;;;;8.30;1.10;;;10.30;99.90;;;;;;5033321;28;20024;-83
2022/09/18 11:25:25;;;;;;;2.05;1.00;;;10.30;99.90;;;;;;5064890;28;20028;-84
2022/09/18 11:27:59;;;;;;;1.63;1.08;;;10.20;99.90;;;;;;5043151;28;20042;-82
2022/09/18 11:30:33;;;;;;;1.65;1.08;;;10.10;99.90;;;;;;5067963;28;20024;-82
2022/09/18 11:33:13;;;;;;;2.70;0.80;;;10.10;99.90;;;;;;5055989;28;20024;-83
2022/09/18 11:35:53;;;;;;;1.10;1.00;;;10.00;99.90;;;;;;5071318;28;20024;-83
2022/09/18 11:38:19;;;;;;;1.15;0.90;;;10.00;99.90;;;;;;5078680;28;20437;-83
2022/09/18 11:40:50;;;;;;;1.85;1.05;;;10.00;99.90;;;;;;5070191;28;20527;-80
2022/09/18 11:43:36;;;;;;;1.40;0.80;;;10.10;99.90;;;;;;5067393;28;20182;-81
2022/09/18 11:46:18;;;;;;;2.08;1.00;;;10.20;99.90;;;;;;5064283;28;20032;-82
2022/09/18 11:49:14;;;;;;;1.63;0.88;;;10.20;99.90;;;;;;5064325;28;21475;-82
2022/09/18 11:51:43;;;;;;;;;;;10.30;99.90;;;;;;5081231;28;20092;-81
2022/09/18 11:54:35;;;;;;;2.25;1.10;;;10.40;99.90;;;;;;5079376;28;19919;-82
2022/09/18 11:57:10;;;;;;;1.45;0.88;;;10.40;99.90;;;;;;5077425;28;20119;-82
2022/09/18 11:59:50;;;;;;;1.33;0.90;;;10.40;99.90;;;;;;5071285;28;20024;-80
2022/09/18 12:02:21;;;;;;;1.77;0.88;;;10.50;99.90;;;;;;5078026;28;20029;-82
2022/09/18 12:05:13;;;;;;;1.20;0.63;;;10.50;99.90;;;;;;5076956;28;20055;-81
2022/09/18 12:08:01;;;;;;;1.48;0.80;;;10.50;99.90;;;;;;5065557;28;20028;-83
2022/09/18 12:10:36;;;;;;;10.32;1.15;;;10.60;99.90;;;;;;5069118;28;20031;-83
2022/09/18 12:13:37;;;;;;;0.60;0.60;;;10.70;99.90;;;;;;5081155;28;20048;-83
2022/09/18 12:16:29;;;;;;;1.60;0.70;;;10.70;99.90;;;;;;5057531;28;20032;-83
2022/09/18 12:19:11;;;;;;;1.02;0.70;;;10.70;99.90;;;;;;5067600;28;20024;-82
2022/09/18 12:21:42;;;;;;;2.72;0.80;;;10.70;99.90;;;;;;5080250;28;20044;-82
2022/09/18 12:24:16;;;;;;;0.95;0.93;;;10.80;99.90;;;;;;5083530;28;20028;-82
2022/09/18 12:27:10;;;;;;;0.77;0.77;;;10.80;99.90;;;;;;5078515;28;20120;-82
2022/09/18 12:30:18;;;;;;;1.25;0.80;;;10.80;99.90;;;;;;5067355;28;20400;-82
2022/09/18 12:32:59;;;;;;;1.85;0.70;;;10.90;99.90;;;;;;5085829;28;20032;-83
2022/09/18 12:35:37;;;;;;;1.20;1.05;;;10.90;99.90;;;;;;5069032;28;20749;-84
2022/09/18 12:38:16;;;;;;;0.60;0.60;;;10.90;99.90;;;;;;5062104;28;20104;-82
2022/09/18 12:41:19;;;;;;;1.20;0.73;;;10.80;99.90;;;;;;5058883;28;20028;-83
2022/09/18 12:43:57;;;;;;;0.88;0.70;;;10.70;99.90;;;;;;5060200;28;20027;-82
2022/09/18 12:46:38;;;;;;;0.80;0.55;;;10.70;99.90;;;;;;5064161;28;20047;-83
2022/09/18 12:49:35;;;;;;;2.65;1.23;;;10.60;99.90;;;;;;5086054;28;20019;-83
2022/09/18 12:52:34;;;;;;;1.30;0.52;;;10.60;99.90;;;;;;5067845;28;20028;-82
2022/09/18 12:55:29;;;;;;;1.85;0.70;;;10.60;99.90;;;;;;5070743;28;20028;-82
2022/09/18 12:58:24;;;;;;;0.55;0.47;;;10.60;99.90;;;;;;5044467;28;20063;-82
2022/09/18 13:00:51;;;;;;;0.50;0.50;;;10.60;99.90;;;;;;5085081;28;20020;-82
2022/09/18 13:03:24;;;;;;;0.57;0.57;;;10.50;99.90;;;;;;5048014;28;20033;-84
2022/09/18 13:06:14;;;;;;;2.15;0.50;;;10.50;99.90;;;;;;5078294;28;20055;-83
2022/09/18 13:08:56;;;;;;;2.67;0.52;;;10.40;99.90;;;;;;5063432;28;20036;-82
2022/09/18 13:11:50;;;;;;;1.33;0.90;;;10.40;99.90;;;;;;5068736;28;20032;-81
2022/09/18 13:14:25;;;;;;;0.40;0.40;;;10.40;99.90;;;;;;5058017;28;20664;-83
2022/09/18 13:16:54;;;;;;;;;;;10.30;99.90;;;;;;5070079;28;20043;-83
2022/09/18 13:19:27;;;;;;;0.43;0.40;;;10.30;99.90;;;;;;5064432;28;19915;-82
2022/09/18 13:21:55;;;;;;;0.57;0.57;;;10.20;99.90;;;;;;5089766;28;20148;-82
2022/09/18 13:24:34;;;;;;;0.55;0.45;;;10.30;99.90;;;;;;5052844;28;20036;-83
2022/09/18 13:27:08;;;;;;;0.63;0.63;;;10.20;99.90;;;;;;5068853;28;20088;-82
2022/09/18 13:29:52;;;;;;;0.73;0.50;;;10.20;99.90;;;;;;5089245;28;20024;-81
2022/09/18 13:32:39;;;;;;;1.38;0.55;;;10.10;99.90;;;;;;5082733;28;20020;-84
2022/09/18 13:35:11;;;;;;;4.10;0.73;;;10.20;99.90;;;;;;5075432;28;20029;-84